Terminal Aerodrome Forecast
Issued by NWS

Home | Current Version | Previous Version | Text Only | Print | Product List | Glossary Off
Versions: 1 2 3 4 5 6 7 8 9 10 11 12 13 14 15

821
FTUS43 KMPX 231429 AAA
TAFRWF
TAF AMD
KRWF 231429Z 2314/2412 30015G24KT P6SM BKN025 BKN035
     FM231600 30015G25KT P6SM SCT030 BKN045
     FM240100 28008KT P6SM SCT070=

USA.gov is the U.S. government's official web portal to all federal, state and local government web resources and services.